Terminal Aerodrome Forecast
Issued by NWS

Current Version | Previous Version | Graphics & Text | Print | Product List | Glossary Off
Versions: 1 2 3 4 5 6 7 8 9 10 11 12 13 14 15 16

285
FTUS42 KILM 081724
TAFCRE
TAF
KCRE 081724Z 0818/0918 19012KT P6SM SKC
     FM082000 21011G18KT P6SM SCT120 SCT250
     FM082300 23013KT P6SM BKN100
      TEMPO 0823/0902 6SM -SHRA BKN040 OVC080
     FM090200 26010G15KT P6SM BKN060
     FM090600 25012G20KT P6SM SCT250=

USA.gov is the U.S. government's official web portal to all federal, state and local government web resources and services.